Pos First Name Last Name YOB Country Start
Num
Time Swim T1 Bike T2 Run
1 Leanda Cave 1978 GBR 14 02:01:31 00:20:04 00:01:28 01:01:10 00:00:44 00:38:05
2 Barbara Lindquist 1969 USA 2 02:01:41 00:19:59 00:01:31 01:01:11 00:00:42 00:38:18
3 Michelle Dillon 1973 GBR 21 02:02:11 00:20:55 00:01:24 01:01:54 00:00:42 00:37:16
4 Michellie Jones 1969 AUS 6 02:02:25 00:20:51 00:00:00 00:00:00 00:00:00 00:00:00
5 Nicole Hackett 1978 AUS 8 02:02:35 00:19:57 00:01:32 01:01:11 00:00:45 00:39:10
6 Anja Dittmer 1975 GER 26 02:02:44 00:20:58 00:01:26 01:02:34 00:00:45 00:37:01
7 Laura Bennett 1975 USA 10 02:02:54 00:20:02 00:01:28 01:01:10 00:00:46 00:39:28
8 Sharon Donnelly 1967 CAN 19 02:03:19 00:20:04 00:01:29 01:01:09 00:00:47 00:39:50
9 Sandra Soldan 1973 BRA 18 02:03:29 00:20:37 00:01:31 01:02:46 00:00:53 00:37:42
10 Carol Montgomery 1965 CAN 12 02:03:43 00:21:04 00:01:27 01:04:33 00:00:51 00:35:48
11 Kathleen Smet 1970 BEL 4 02:03:48 00:21:01 00:01:29 01:02:23 00:00:59 00:37:56
12 Loretta Harrop 1975 AUS 3 02:03:58 00:20:01 00:01:30 01:01:11 00:00:46 00:40:30
13 Siri Lindley 1969 USA 1 02:04:10 00:20:40 00:01:29 01:02:44 00:00:47 00:38:30
14 Liz Blatchford 1980 GBR 11 02:04:20 00:20:41 00:01:27 01:02:45 00:00:45 00:38:42
15 Joelle Franzmann 1978 GER 40 02:04:24 00:20:07 00:01:37 01:03:09 00:00:44 00:38:47
16 Machiko Nakanishi 1976 JPN 15 02:04:30 00:20:48 00:01:28 01:02:37 00:00:54 00:38:43
17 Andrea Whitcombe 1971 GBR 28 02:04:50 00:20:54 00:01:33 01:02:35 00:00:39 00:39:09
18 Christiane Pilz 1975 GER 17 02:05:27 00:20:59 00:01:29 01:02:23 00:00:38 00:39:58
19 Ana Burgos Acuña 1967 ESP 25 02:05:32 00:21:51 00:01:37 01:03:35 00:00:50 00:37:39
20 Susan Williams 1969 USA 34 02:06:04 00:20:55 00:01:34 01:02:25 00:00:47 00:40:23
21 Ainhoa Murua Zubizarreta 1978 ESP 55 02:06:09 00:20:54 00:01:36 01:02:24 00:00:45 00:40:20
22 Pip Taylor 1980 AUS 35 02:06:43 00:20:16 00:00:00 01:04:42 00:00:38 00:41:07
23 Jessica Harrison 1977 FRA 42 02:06:50 00:00:00 00:00:00 00:00:00 00:00:00 00:00:00
24 Sheila Taormina 1969 USA 7 02:07:00 00:20:01 00:01:35 01:01:04 00:00:46 00:43:34
25 Ewa Dederko 1974 POL 51 02:07:24 00:21:51 00:01:31 01:03:42 00:00:48 00:39:33
26 Megan Hall 1974 RSA 44 02:07:35 00:20:54 00:01:36 01:02:26 00:00:48 00:41:52
27 Nathalie Daumas 1975 FRA 29 02:08:00 00:21:01 00:01:36 01:04:25 00:00:47 00:40:11
28 Samantha Warriner 1971 NZL 49 02:08:05 00:21:19 00:01:30 01:04:14 00:00:48 00:40:14
29 Gillian Kornell 1976 CAN 37 02:08:11 00:21:57 00:01:29 01:03:37 00:00:45 00:40:23
30 Barbara Kösser 1979 GER 50 02:08:25 00:20:47 00:01:45 01:04:31 00:00:51 00:40:31
31 Sibylle Matter Bruegger 1973 SUI 39 02:08:40 00:21:43 00:01:37 01:03:41 00:00:47 00:40:52
32 Ingrid Van Lubek 1971 NED 43 02:08:45 00:21:41 00:01:37 01:03:43 00:00:56 00:40:48
33 Kiyomi Niwata 1970 JPN 32 02:08:51 00:21:51 00:01:33 01:03:38 00:00:48 00:41:01
34 Lucie Zelenkova 1974 CZE 41 02:08:56 00:20:46 00:01:41 01:02:27 00:00:50 00:43:12
35 Nina Anisimova 1973 RUS 24 02:09:06 00:21:03 00:01:33 01:04:28 00:00:52 00:41:10
36 Christine Jeffrey 1972 CAN 46 02:09:10 00:20:09 00:01:39 01:03:08 00:00:50 00:43:24
37 Stephanie Deanaz 1975 FRA 47 02:09:54 00:21:52 00:01:33 01:03:45 00:00:47 00:41:57
38 Natasha Filliol 1980 CAN 23 02:10:04 00:22:42 00:01:31 01:06:05 00:00:48 00:38:58
39 Renata Berkova 1975 CZE 31 02:10:17 00:21:56 00:01:34 01:06:52 00:00:46 00:39:09
40 Shizuka Kutsuna JPN 57 02:10:52 00:20:52 00:01:37 01:05:20 00:00:50 00:42:14
41 Miyuki Biwata JPN 30 02:11:11 00:22:40 00:01:39 01:05:58 00:00:44 00:40:10
42 Maki Nishiuchi 1975 JPN 45 02:12:05 00:21:11 00:01:37 01:04:15 00:00:58 00:44:04
43 Kelly Williamson 1977 USA 60 02:12:33 00:20:56 00:01:33 01:07:52 00:00:50 00:41:22
44 Hongni Wang 1982 CHN 64 02:12:47 00:22:46 00:01:36 01:05:57 00:00:45 00:41:43
45 Gisele Bertucci 1980 BRA 52 02:14:14 00:21:56 00:01:42 01:06:42 00:00:48 00:43:07
46 Delphine Pelletier 1977 FRA 33 02:14:40 00:21:56 00:01:33 01:06:52 00:00:54 00:43:25
47 Saori Ohmatsu JPN 36 02:15:47 00:22:46 00:01:33 01:06:01 00:00:49 00:44:39
48 Meng Shi 1979 CHN 58 02:15:55 00:21:09 00:01:43 01:04:13 00:00:52 00:47:58
49 Lin Xing 1979 CHN 59 02:16:24 00:22:43 00:01:40 01:05:56 00:00:44 00:45:21
DNS Fiona Docherty 1975 NZL 56 DNS 00:00:00 00:00:00 00:00:00 00:00:00 00:00:00
DNS Maria Soledad Omar 1973 ARG 61 DNS 00:00:00 00:00:00 00:00:00 00:00:00 00:00:00
DNS Olga Generalova 1972 RUS 38 DNS 00:00:00 00:00:00 00:00:00 00:00:00 00:00:00
DNS Silvia Gemignani 1972 ITA 22 DNS 00:00:00 00:00:00 00:00:00 00:00:00 00:00:00
DNF Fiorella D'Croz 1979 COL 63 DNF 00:22:45 00:01:40 00:00:00 00:00:00 00:00:00
DNF Jill Savege 1974 CAN 5 DNF 00:20:12 00:01:36 00:00:00 00:00:00 00:00:00
DNF Carla Moreno 1975 BRA 9 DNF 00:20:37 00:01:33 00:00:00 00:00:00 00:00:00
DNF Carole Peon 1978 FRA 54 DNF 00:21:55 00:01:41 00:00:00 00:00:00 00:00:00
DNF Julie Dibens 1975 GBR 48 DNF 00:20:48 00:01:36 01:02:31 00:00:50 00:00:00
DNF Maribel Blanco Velasco 1969 ESP 65 DNF 00:23:34 00:01:38 00:00:00 00:00:00 00:00:00
DNF Lenka Zemanova 1979 CZE 16 DNF 00:20:57 00:01:27 00:00:00 00:00:00 00:00:00
DNF Melissa Ashton 1973 AUS 20 DNF 00:20:50 00:01:25 00:00:00 00:00:00 00:00:00
DNF Nancy Alvarez 1976 ARG 53 DNF 00:22:53 00:01:40 00:00:00 00:00:00 00:00:00
Program notes:

Technical Delegates: Sheila O’Kelly/CAN, Allen Vansen/CAN. Referee: Gergely Markus/HUN. Competition Jury: Brian Hinton/AUS, Antonio Alvarez/MEX, Sheila O’Kelly/CAN, Doug Hiller/USA and Masao Nakayama/JPN.
Distances: Swim 1500 m (2 laps), bike 40 km (8 laps), run 10 km (4 laps)
Air temperature 32ºC Wind 14 km/h Humidity 79%